createdAt,value
2022-12-18T00:01:52.756Z,-1.59
2022-12-18T00:04:53.708Z,-1.65
2022-12-18T00:07:53.766Z,-1.66
2022-12-18T00:10:53.736Z,-1.70
2022-12-18T00:14:00.800Z,-1.56
2022-12-18T00:17:01.743Z,-1.44
2022-12-18T00:20:01.814Z,-1.38
2022-12-18T00:23:01.743Z,-1.32
2022-12-18T00:26:01.764Z,-1.24
2022-12-18T00:29:01.735Z,-1.25
2022-12-18T00:32:01.789Z,-1.29
2022-12-18T00:35:01.734Z,-1.36
2022-12-18T00:38:01.693Z,-1.56
2022-12-18T00:41:01.750Z,-1.45
2022-12-18T00:44:01.696Z,-1.52
2022-12-18T00:47:01.691Z,-1.56
2022-12-18T00:50:01.718Z,-1.60
2022-12-18T00:53:01.761Z,-1.66
2022-12-18T00:56:04.741Z,-1.92
2022-12-18T00:59:04.706Z,-1.72
2022-12-18T01:02:05.827Z,-1.85
2022-12-18T01:05:05.759Z,-1.78
2022-12-18T01:08:05.747Z,-1.74
2022-12-18T01:11:05.734Z,-1.76
2022-12-18T01:14:07.719Z,-1.75
2022-12-18T01:17:09.729Z,-1.79
2022-12-18T01:20:09.747Z,-1.83
2022-12-18T01:23:09.732Z,-1.94
2022-12-18T01:26:09.722Z,-2.02
2022-12-18T01:29:10.738Z,-2.05
2022-12-18T01:32:10.756Z,-2.30
2022-12-18T01:35:10.733Z,-2.18
2022-12-18T01:38:10.745Z,-2.27
2022-12-18T01:41:14.734Z,-2.28
2022-12-18T01:44:14.711Z,-2.39
2022-12-18T01:47:14.700Z,-2.44
2022-12-18T01:50:18.719Z,-2.53
2022-12-18T01:53:22.729Z,-2.57
2022-12-18T01:56:22.727Z,-2.60
2022-12-18T01:59:24.698Z,-2.67
2022-12-18T02:02:24.872Z,-2.78
2022-12-18T02:05:26.742Z,-2.86
2022-12-18T02:08:38.690Z,-2.98
2022-12-18T02:11:55.713Z,-2.86
2022-12-18T02:14:59.723Z,-2.91
2022-12-18T02:18:22.695Z,-3.01
2022-12-18T02:21:41.721Z,-3.03
2022-12-18T02:24:48.700Z,-3.06
2022-12-18T02:27:49.723Z,-3.12
2022-12-18T02:30:49.800Z,-3.26
2022-12-18T02:33:50.675Z,-3.16
2022-12-18T02:36:53.742Z,-3.15
2022-12-18T02:39:54.713Z,-3.06
2022-12-18T02:42:54.737Z,-3.00
2022-12-18T02:46:04.745Z,-3.09
2022-12-18T02:49:04.718Z,-3.16
2022-12-18T02:52:19.686Z,-3.31
2022-12-18T02:55:42.703Z,-3.22
2022-12-18T02:59:04.722Z,-3.28
2022-12-18T03:02:05.785Z,-3.35
2022-12-18T03:05:12.705Z,-3.36
2022-12-18T03:08:17.679Z,-3.31
2022-12-18T03:11:19.744Z,-3.35
2022-12-18T03:14:21.702Z,-3.39
2022-12-18T03:17:25.725Z,-3.34
2022-12-18T03:20:29.702Z,-3.50
2022-12-18T03:23:36.731Z,-3.34
2022-12-18T03:26:39.682Z,-3.38
2022-12-18T03:30:03.721Z,-3.50
2022-12-18T03:33:08.683Z,-3.46
2022-12-18T03:36:09.703Z,-3.52
2022-12-18T03:39:09.736Z,-3.56
2022-12-18T03:42:19.730Z,-3.56
2022-12-18T03:45:40.759Z,-3.53
2022-12-18T03:48:52.692Z,-3.49
2022-12-18T03:52:00.712Z,-3.44
2022-12-18T03:55:00.728Z,-3.71
2022-12-18T03:58:01.730Z,-3.69
2022-12-18T04:01:05.773Z,-3.54
2022-12-18T04:04:06.744Z,-3.58
2022-12-18T04:07:07.670Z,-3.57
2022-12-18T04:10:10.711Z,-3.57
2022-12-18T04:13:12.708Z,-3.54
2022-12-18T04:16:12.742Z,-3.56
2022-12-18T04:19:12.679Z,-3.55
2022-12-18T04:22:14.688Z,-3.56
2022-12-18T04:25:15.671Z,-3.66
2022-12-18T04:28:16.684Z,-3.82
2022-12-18T04:31:16.714Z,-3.73
2022-12-18T04:34:16.683Z,-3.77
2022-12-18T04:37:16.691Z,-3.84
2022-12-18T04:40:17.681Z,-3.84
2022-12-18T04:43:17.750Z,-3.94
2022-12-18T04:46:18.681Z,-3.73
2022-12-18T04:49:18.709Z,-3.78
2022-12-18T04:52:18.659Z,-3.73
2022-12-18T04:55:18.711Z,-3.64
2022-12-18T04:58:18.701Z,-3.65
2022-12-18T05:01:18.838Z,-3.66
2022-12-18T05:04:18.699Z,-3.63
2022-12-18T05:07:19.719Z,-3.61
2022-12-18T05:10:19.701Z,-3.68
2022-12-18T05:13:19.730Z,-3.72
2022-12-18T05:16:19.720Z,-3.77
2022-12-18T05:19:19.718Z,-4.01
2022-12-18T05:22:19.696Z,-3.82
2022-12-18T05:25:19.661Z,-3.84
2022-12-18T05:28:20.681Z,-3.90
2022-12-18T05:31:20.700Z,-3.90
2022-12-18T05:34:20.702Z,-3.80
2022-12-18T05:37:20.694Z,-3.80
2022-12-18T05:40:20.722Z,-3.85
2022-12-18T05:43:21.536Z,-3.95
2022-12-18T05:46:24.768Z,-3.85
2022-12-18T05:49:24.650Z,-3.77
2022-12-18T05:52:24.693Z,-3.79
2022-12-18T05:55:24.686Z,-3.79
2022-12-18T05:58:25.675Z,-3.77
2022-12-18T06:01:31.750Z,-3.88
2022-12-18T06:04:32.715Z,-3.94
2022-12-18T06:07:32.698Z,-4.00
2022-12-18T06:10:32.656Z,-4.08
2022-12-18T06:13:33.697Z,-4.26
2022-12-18T06:16:33.701Z,-4.07
2022-12-18T06:19:33.714Z,-4.18
2022-12-18T06:22:33.845Z,-4.29
2022-12-18T06:25:33.663Z,-4.18
2022-12-18T06:28:33.695Z,-4.17
2022-12-18T06:31:26.868Z,-4.22
2022-12-18T06:34:26.710Z,-4.09
2022-12-18T06:37:26.678Z,-4.13
2022-12-18T06:40:26.656Z,-4.15
2022-12-18T06:43:26.651Z,-4.10
2022-12-18T06:46:26.680Z,-4.01
2022-12-18T06:49:30.459Z,-4.05
2022-12-18T06:52:30.661Z,-4.13
2022-12-18T06:55:30.721Z,-4.20
2022-12-18T06:58:30.661Z,-4.01
2022-12-18T07:01:30.776Z,-4.03
2022-12-18T07:04:30.695Z,-3.93
2022-12-18T07:07:30.700Z,-3.91
2022-12-18T07:10:23.694Z,-3.84
2022-12-18T07:13:10.672Z,-3.68
2022-12-18T07:16:17.125Z,-3.48
2022-12-18T07:19:20.655Z,-3.27
2022-12-18T07:22:20.642Z,-3.06
2022-12-18T07:25:21.674Z,-3.00
2022-12-18T07:28:22.680Z,-2.96
2022-12-18T07:31:27.708Z,-2.88
2022-12-18T07:34:28.666Z,-2.86
2022-12-18T07:37:28.657Z,-2.82
2022-12-18T07:40:28.723Z,-2.78
2022-12-18T07:43:28.700Z,-2.77
2022-12-18T07:46:28.658Z,-2.80
2022-12-18T07:49:28.714Z,-2.75
2022-12-18T07:52:28.690Z,-2.62
2022-12-18T07:55:35.325Z,-2.57
2022-12-18T07:58:41.683Z,-2.52
2022-12-18T08:01:41.771Z,-2.49
2022-12-18T08:04:42.656Z,-2.44
2022-12-18T08:07:42.673Z,-2.31
2022-12-18T08:10:42.714Z,-2.27
2022-12-18T08:13:42.922Z,-1.61
2022-12-18T08:16:42.733Z,-0.62
2022-12-18T08:19:42.651Z,-0.03
2022-12-18T08:22:44.670Z,0.62
2022-12-18T08:25:44.642Z,0.86
2022-12-18T08:28:44.662Z,1.51
2022-12-18T08:31:44.746Z,1.83
2022-12-18T08:34:44.699Z,2.71
2022-12-18T08:37:44.686Z,2.94
2022-12-18T08:40:44.656Z,3.27
2022-12-18T08:44:02.687Z,3.18
2022-12-18T08:47:02.633Z,3.17
2022-12-18T08:50:02.691Z,3.64
2022-12-18T08:53:02.660Z,4.07
2022-12-18T08:56:02.718Z,4.69
2022-12-18T08:59:06.669Z,4.39
2022-12-18T09:02:07.764Z,3.96
2022-12-18T09:05:07.639Z,3.57
2022-12-18T09:08:07.686Z,3.97
2022-12-18T09:11:07.707Z,4.74
2022-12-18T09:14:07.654Z,4.89
2022-12-18T09:17:07.717Z,4.87
2022-12-18T09:20:07.665Z,4.49
2022-12-18T09:23:07.650Z,5.14
2022-12-18T09:26:13.674Z,5.36
2022-12-18T09:29:14.697Z,5.44
2022-12-18T09:32:20.516Z,5.14
2022-12-18T09:35:21.689Z,5.34
2022-12-18T09:38:23.683Z,5.52
2022-12-18T09:41:51.853Z,5.43
2022-12-18T09:44:58.722Z,6.06
2022-12-18T09:47:59.645Z,6.19
2022-12-18T09:50:59.694Z,6.52
2022-12-18T09:54:03.707Z,6.41
2022-12-18T09:57:03.676Z,7.50
2022-12-18T10:00:11.656Z,7.43
2022-12-18T10:03:18.679Z,7.13
2022-12-18T10:07:05.673Z,7.47
2022-12-18T10:10:19.650Z,7.84
2022-12-18T10:13:21.705Z,6.81
2022-12-18T10:16:27.705Z,7.78
2022-12-18T10:19:46.672Z,6.20
2022-12-18T10:23:14.676Z,6.50
2022-12-18T10:26:16.665Z,7.81
2022-12-18T10:29:24.678Z,8.07
2022-12-18T10:32:46.654Z,7.57
2022-12-18T10:35:46.666Z,7.03
2022-12-18T10:38:46.714Z,6.91
2022-12-18T10:41:46.651Z,6.74
2022-12-18T10:44:46.695Z,7.39
2022-12-18T10:47:48.649Z,7.35
2022-12-18T10:54:21.670Z,7.50
2022-12-18T10:57:48.703Z,6.81
2022-12-18T11:00:51.653Z,6.33
2022-12-18T11:04:01.682Z,6.76
2022-12-18T11:07:12.677Z,6.36
2022-12-18T11:10:16.619Z,6.34
2022-12-18T11:13:28.707Z,6.02
2022-12-18T11:16:33.704Z,5.69
2022-12-18T11:19:50.690Z,6.20
2022-12-18T11:22:51.640Z,5.13
2022-12-18T11:25:51.668Z,4.86
2022-12-18T11:28:54.663Z,5.01
2022-12-18T11:31:54.654Z,4.29
2022-12-18T11:34:59.239Z,4.48
2022-12-18T11:38:07.652Z,4.22
2022-12-18T11:41:51.718Z,3.67
2022-12-18T11:45:04.688Z,3.36
2022-12-18T11:48:30.631Z,3.15
2022-12-18T11:51:40.653Z,3.11
2022-12-18T11:54:40.693Z,2.55
2022-12-18T11:57:50.649Z,2.72
2022-12-18T12:00:56.673Z,2.69
2022-12-18T12:04:11.701Z,2.78
2022-12-18T12:07:35.671Z,2.85
2022-12-18T12:10:50.691Z,2.50
2022-12-18T12:13:59.655Z,2.42
2022-12-18T12:17:13.683Z,2.52
2022-12-18T12:20:23.695Z,2.35
2022-12-18T12:23:33.682Z,2.10
2022-12-18T12:26:56.679Z,2.35
2022-12-18T12:30:04.676Z,2.51
2022-12-18T12:33:17.680Z,2.32
2022-12-18T12:36:34.658Z,2.27
2022-12-18T12:39:37.667Z,1.91
2022-12-18T12:43:12.637Z,1.65
2022-12-18T12:46:15.685Z,1.35
2022-12-18T12:49:21.631Z,1.08
2022-12-18T12:52:27.674Z,0.86
2022-12-18T12:55:32.644Z,0.36
2022-12-18T12:58:48.666Z,0.17
2022-12-18T13:01:56.779Z,-0.03
2022-12-18T13:05:11.666Z,-0.04
2022-12-18T13:08:14.675Z,-0.32
2022-12-18T13:11:32.679Z,-0.29
2022-12-18T13:14:45.643Z,-0.41
2022-12-18T13:17:45.674Z,-0.51
2022-12-18T13:20:57.372Z,-0.55
2022-12-18T13:23:59.643Z,-0.68
2022-12-18T13:26:59.666Z,-0.75
2022-12-18T13:30:00.676Z,-0.87
2022-12-18T13:33:00.632Z,-0.94
2022-12-18T13:36:00.665Z,-1.02
2022-12-18T13:39:00.665Z,-1.12
2022-12-18T13:42:02.682Z,-1.17
2022-12-18T13:45:02.668Z,-1.35
2022-12-18T13:48:02.646Z,-1.26
2022-12-18T13:51:30.669Z,-1.31
2022-12-18T13:54:51.633Z,-1.35
2022-12-18T13:57:52.640Z,-1.26
2022-12-18T14:00:56.699Z,-1.25
2022-12-18T14:03:56.643Z,-1.25
2022-12-18T14:06:59.670Z,-1.27
2022-12-18T14:10:47.696Z,-1.24
2022-12-18T14:13:51.639Z,-1.22
2022-12-18T14:16:51.644Z,-1.20
2022-12-18T14:19:51.645Z,-1.21
2022-12-18T14:22:51.621Z,-1.24
2022-12-18T14:25:51.630Z,-1.27
2022-12-18T14:28:58.623Z,-1.28
2022-12-18T14:31:58.607Z,-1.29
2022-12-18T14:35:02.664Z,-1.28
2022-12-18T14:38:02.643Z,-1.30
2022-12-18T14:41:06.632Z,-1.41
2022-12-18T14:44:07.672Z,-1.28
2022-12-18T14:47:07.678Z,-1.30
2022-12-18T14:50:07.658Z,-1.35
2022-12-18T14:53:07.670Z,-1.44
2022-12-18T14:56:07.649Z,-1.52
2022-12-18T14:59:24.020Z,-1.61
2022-12-18T15:02:42.779Z,-1.65
2022-12-18T15:05:45.634Z,-1.74
2022-12-18T15:08:49.636Z,-1.71
2022-12-18T15:11:50.689Z,-1.77
2022-12-18T15:14:54.836Z,-1.86
2022-12-18T15:17:54.670Z,-1.93
2022-12-18T15:20:59.685Z,-2.13
2022-12-18T15:23:59.629Z,-2.06
2022-12-18T15:26:59.668Z,-2.18
2022-12-18T15:30:33.741Z,-2.29
2022-12-18T15:33:47.660Z,-2.30
2022-12-18T15:36:47.622Z,-2.48
2022-12-18T15:39:47.625Z,-2.57
2022-12-18T15:43:05.645Z,-2.67
2022-12-18T15:46:05.737Z,-2.91
2022-12-18T15:49:07.648Z,-2.91
2022-12-18T15:52:09.621Z,-2.99
2022-12-18T15:55:27.646Z,-3.02
2022-12-18T15:58:28.657Z,-3.07
2022-12-18T16:01:28.706Z,-3.18
2022-12-18T16:04:30.652Z,-3.07
2022-12-18T16:07:30.985Z,-3.06
2022-12-18T16:10:30.659Z,-3.03
2022-12-18T16:13:32.605Z,-3.03
2022-12-18T16:16:32.655Z,-2.92
2022-12-18T16:19:32.643Z,-2.86
2022-12-18T16:22:42.666Z,-2.78
2022-12-18T16:25:42.674Z,-2.72
2022-12-18T16:28:48.163Z,-2.68
2022-12-18T16:31:48.660Z,-2.63
2022-12-18T16:34:49.648Z,-2.59
2022-12-18T16:37:49.657Z,-2.57
2022-12-18T16:41:09.653Z,-2.49
2022-12-18T16:44:09.683Z,-2.44
2022-12-18T16:47:10.250Z,-2.42
2022-12-18T16:50:12.619Z,-2.60
2022-12-18T16:53:12.607Z,-2.48
2022-12-18T16:56:12.633Z,-2.46
2022-12-18T16:59:16.614Z,-2.42
2022-12-18T17:02:17.135Z,-2.38
2022-12-18T17:05:18.619Z,-2.41
2022-12-18T17:08:18.600Z,-2.28
2022-12-18T17:11:20.617Z,-2.27
2022-12-18T17:14:28.650Z,-2.23
2022-12-18T17:17:28.657Z,-2.21
2022-12-18T17:20:28.644Z,-2.19
2022-12-18T17:23:21.719Z,-2.27
2022-12-18T17:26:21.599Z,-2.23
2022-12-18T17:29:21.630Z,-2.24
2022-12-18T17:32:23.630Z,-2.36
2022-12-18T17:35:23.616Z,-2.30
2022-12-18T17:38:23.647Z,-2.32
2022-12-18T17:41:24.614Z,-2.34
2022-12-18T17:44:24.653Z,-2.44
2022-12-18T17:47:25.590Z,-2.40
2022-12-18T17:50:27.632Z,-2.49
2022-12-18T17:53:27.608Z,-2.43
2022-12-18T17:56:29.609Z,-2.38
2022-12-18T17:59:29.604Z,-2.39
2022-12-18T18:02:29.829Z,-2.40
2022-12-18T18:05:30.602Z,-2.38
2022-12-18T18:08:30.653Z,-2.36
2022-12-18T18:11:50.638Z,-2.36
2022-12-18T18:14:52.655Z,-2.35
2022-12-18T18:17:52.647Z,-2.42
2022-12-18T18:20:55.658Z,-2.44
2022-12-18T18:23:55.608Z,-2.49
2022-12-18T18:26:55.648Z,-2.50
2022-12-18T18:29:55.652Z,-2.55
2022-12-18T18:32:55.652Z,-2.62
2022-12-18T18:35:56.633Z,-2.73
2022-12-18T18:38:56.611Z,-2.87
2022-12-18T18:41:56.589Z,-2.99
2022-12-18T18:44:56.597Z,-3.34
2022-12-18T18:47:56.645Z,-3.22
2022-12-18T18:50:56.602Z,-3.46
2022-12-18T18:53:58.655Z,-3.46
2022-12-18T19:00:19.638Z,-3.62
2022-12-18T19:03:19.672Z,-3.70
2022-12-18T19:06:22.649Z,-3.76
2022-12-18T19:09:23.640Z,-3.78
2022-12-18T19:12:42.635Z,-4.05
2022-12-18T19:15:42.626Z,-3.95
2022-12-18T19:18:44.716Z,-4.18
2022-12-18T19:21:44.602Z,-4.02
2022-12-18T19:24:44.623Z,-4.07
2022-12-18T19:27:46.629Z,-4.15
2022-12-18T19:30:46.618Z,-4.20
2022-12-18T19:33:51.588Z,-4.37
2022-12-18T19:36:59.278Z,-4.31
2022-12-18T19:39:59.638Z,-4.40
2022-12-18T19:43:01.623Z,-4.42
2022-12-18T19:46:08.683Z,-4.51
2022-12-18T19:49:08.622Z,-4.59
2022-12-18T19:52:08.633Z,-4.62
2022-12-18T19:55:08.624Z,-4.74
2022-12-18T19:58:08.590Z,-4.64
2022-12-18T20:01:08.611Z,-4.59
2022-12-18T20:04:09.650Z,-4.59
2022-12-18T20:07:09.602Z,-4.64
2022-12-18T20:10:09.617Z,-4.64
2022-12-18T20:13:09.627Z,-4.90
2022-12-18T20:16:09.614Z,-4.86
2022-12-18T20:19:09.629Z,-4.72
2022-12-18T20:22:09.602Z,-4.75
2022-12-18T20:25:09.645Z,-4.95
2022-12-18T20:28:09.614Z,-4.81
2022-12-18T20:31:17.608Z,-4.69
2022-12-18T20:34:17.616Z,-4.72
2022-12-18T20:37:17.630Z,-4.74
2022-12-18T20:40:18.627Z,-4.80
2022-12-18T20:43:18.607Z,-4.93
2022-12-18T20:46:21.618Z,-4.84
2022-12-18T20:49:21.615Z,-4.88
2022-12-18T20:52:21.603Z,-4.94
2022-12-18T20:55:23.591Z,-5.11
2022-12-18T20:58:23.592Z,-5.03
2022-12-18T21:01:26.750Z,-5.04
2022-12-18T21:04:26.591Z,-5.28
2022-12-18T21:07:26.646Z,-5.17
2022-12-18T21:10:26.612Z,-5.19
2022-12-18T21:13:26.583Z,-5.28
2022-12-18T21:16:28.622Z,-5.18
2022-12-18T21:19:34.566Z,-5.26
2022-12-18T21:22:34.632Z,-5.24
2022-12-18T21:25:34.619Z,-5.22
2022-12-18T21:28:34.607Z,-5.22
2022-12-18T21:31:36.659Z,-5.27
2022-12-18T21:34:43.293Z,-5.31
2022-12-18T21:37:45.583Z,-5.31
2022-12-18T21:40:45.609Z,-5.34
2022-12-18T21:44:03.632Z,-5.34
2022-12-18T21:47:12.301Z,-5.38
2022-12-18T21:50:21.584Z,-5.43
2022-12-18T21:53:24.576Z,-5.51
2022-12-18T21:56:24.587Z,-5.60
2022-12-18T21:59:26.606Z,-5.55
2022-12-18T22:02:31.832Z,-5.72
2022-12-18T22:05:31.621Z,-5.62
2022-12-18T22:08:31.608Z,-5.62
2022-12-18T22:11:31.611Z,-5.61
2022-12-18T22:14:31.588Z,-5.69
2022-12-18T22:17:31.606Z,-5.82
2022-12-18T22:20:32.559Z,-5.69
2022-12-18T22:23:32.612Z,-5.62
2022-12-18T22:26:37.887Z,-5.62
2022-12-18T22:29:57.591Z,-5.74
2022-12-18T22:32:57.555Z,-5.71
2022-12-18T22:35:57.582Z,-5.69
2022-12-18T22:38:57.560Z,-5.69
2022-12-18T22:41:57.627Z,-5.75
2022-12-18T22:44:57.548Z,-5.73
2022-12-18T22:47:57.633Z,-6.05
2022-12-18T22:50:59.650Z,-5.93
2022-12-18T22:53:59.607Z,-5.82
2022-12-18T22:56:59.564Z,-5.67
2022-12-18T22:59:59.550Z,-5.67
2022-12-18T23:03:00.996Z,-5.81
2022-12-18T23:06:00.553Z,-5.82
2022-12-18T23:09:00.607Z,-5.95
2022-12-18T23:11:54.562Z,-5.87
2022-12-18T23:14:41.570Z,-5.89
2022-12-18T23:17:42.590Z,-5.87
2022-12-18T23:20:42.572Z,-5.98
2022-12-18T23:23:42.624Z,-5.96
2022-12-18T23:26:42.582Z,-5.93
2022-12-18T23:29:42.583Z,-5.89
2022-12-18T23:32:46.607Z,-5.88
2022-12-18T23:35:46.557Z,-5.87
2022-12-18T23:38:48.575Z,-5.92
2022-12-18T23:41:48.577Z,-6.03
2022-12-18T23:44:48.531Z,-6.03
2022-12-18T23:47:51.015Z,-6.03
2022-12-18T23:50:50.604Z,-6.05
2022-12-18T23:53:50.562Z,-6.14
2022-12-18T23:56:50.547Z,-6.09
2022-12-18T23:59:50.587Z,-6.36
